Airfield :
LOGIN :

Register | Disclaimer

   EN    FR    IT 

 










Legend :    VFR   Marginal VFR   IFR   Intensive IFR   Very Intensive IFR
Visi :
Ceiling :
>= 8 km
>= 3000ft
5 to 8 km
1000 to 3000 ft
1500m to 5 km
500 to 1000 ft
800 to 1500m
200 to 500 ft
< 800m
< 200 ft
Symbols :   Thunderstorms  Fog  Heavy snow  Heavy precipitations  Wind > 20 kt
SIGMETs :     Misc.  Thunderstorms  Icing  Turbulence  Mountain Waves  Volcanic Ashes






- Airport Elevation : 160 ft
- IATA code : LRT


LFRH - Lorient Lann Bihoue

CURRENT METAR :
  • 152300Z AUTO 22014KT 9999 SCT030 OVC150 11/06 Q1003 TEMPO VRB15G25KT 4000 SHRA BKN020TCU

EXPIRED METARs :
  • 152230Z AUTO 22014KT 9999 BKN029 OVC170 11/06 Q1003 TEMPO VRB15G25KT 4000 SHRA BKN020TCU
  • 152200Z AUTO 21013KT 9999 BKN026 BKN033 OVC190 11/07 Q1003 TEMPO VRB15G25KT 4000 SHRA BKN020TCU
  • 152130Z AUTO 21013KT 9999 BKN026 BKN034 10/07 Q1003 TEMPO VRB15G25KT 4000 SHRA BKN020TCU
  • 152100Z AUTO 21010KT 9999 SCT025 OVC190 10/07 Q1003 TEMPO VRB15G25KT 4000 SHRA BKN020TCU
  • 152030Z AUTO 20012KT CAVOK 09/06 Q1003 TEMPO VRB15G25KT 4000 SHRA BKN020TCU

TAF TAF LFRH
Valid from the 15 at 18:00 until the 16 at 18:00 UTC


151700Z 1518/1618 21013KT 9999 BKN030
TEMPO 1518/1602 VRB15G25KT 4000 SHRA BKN020TCU
BECMG 1603/1605 BKN015 OVC030
BECMG 1608/1612 07006KT 4500 RA BKN010 BKN015TCU
BECMG 1616/1618 9999 NSW BKN030



MET'MAP, your aeronautical weather chart ! - Copyright ORBIFLY December 2007 - Disclaimer

ORBIFLY MET'MAP TEAM :

Programming & Development : Alexandra Zaïnal
Concept & original design : Baudouin d'Aumeries
Assistance for programming : Marc-Olivier Méhu
Technical & hardware support : Manuel Goepfert

Contact : metmap@orbifly.com




SOURCES & CREDITS :

   NOAA